createdAt,value
2019-05-22T00:01:33.091Z,87.80
2019-05-22T00:04:04.967Z,88.10
2019-05-22T00:06:36.883Z,87.60
2019-05-22T00:09:08.795Z,87.90
2019-05-22T00:11:40.247Z,88.00
2019-05-22T00:14:10.780Z,87.90
2019-05-22T00:16:40.165Z,87.90
2019-05-22T00:19:09.914Z,88.00
2019-05-22T00:21:40.291Z,87.80
2019-05-22T00:24:11.470Z,87.80
2019-05-22T00:26:43.729Z,87.90
2019-05-22T00:29:15.931Z,87.90
2019-05-22T00:31:46.148Z,87.60
2019-05-22T00:34:17.188Z,87.70
2019-05-22T00:36:47.163Z,87.70
2019-05-22T00:39:18.871Z,87.90
2019-05-22T00:41:51.188Z,87.30
2019-05-22T00:44:21.122Z,87.60
2019-05-22T00:46:53.167Z,87.60
2019-05-22T00:49:24.708Z,87.50
2019-05-22T00:51:56.388Z,87.50
2019-05-22T00:54:40.114Z,87.50
2019-05-22T00:57:13.083Z,87.40
2019-05-22T00:59:44.072Z,87.70
2019-05-22T01:02:15.019Z,87.70
2019-05-22T01:04:46.959Z,87.50
2019-05-22T01:07:17.347Z,87.40
2019-05-22T01:09:52.820Z,87.40
2019-05-22T01:12:43.186Z,87.50
2019-05-22T01:15:15.639Z,87.70
2019-05-22T01:17:46.604Z,87.80
2019-05-22T01:20:17.700Z,88.10
2019-05-22T01:22:48.937Z,87.80
2019-05-22T01:25:20.704Z,88.10
2019-05-22T01:27:50.179Z,87.90
2019-05-22T01:30:28.448Z,88.00
2019-05-22T01:33:00.575Z,88.30
2019-05-22T01:35:40.548Z,88.90
2019-05-22T01:38:11.931Z,88.80
2019-05-22T01:40:48.673Z,89.00
2019-05-22T01:43:20.165Z,89.20
2019-05-22T01:45:52.743Z,89.60
2019-05-22T01:48:25.792Z,89.70
2019-05-22T01:50:58.461Z,90.00
2019-05-22T01:53:31.368Z,89.80
2019-05-22T01:56:02.974Z,89.90
2019-05-22T01:58:34.415Z,90.00
2019-05-22T02:01:05.980Z,90.10
2019-05-22T02:03:36.582Z,90.20
2019-05-22T02:06:07.256Z,90.30
2019-05-22T02:08:41.480Z,90.30
2019-05-22T02:11:14.233Z,90.30
2019-05-22T02:13:49.172Z,90.20
2019-05-22T02:16:18.634Z,90.30
2019-05-22T02:18:49.370Z,90.50
2019-05-22T02:21:21.606Z,90.30
2019-05-22T02:23:51.963Z,90.00
2019-05-22T02:26:22.198Z,90.30
2019-05-22T02:28:54.648Z,90.60
2019-05-22T02:31:25.653Z,90.70
2019-05-22T02:34:02.277Z,90.40
2019-05-22T02:36:33.120Z,90.40
2019-05-22T02:39:04.068Z,90.40
2019-05-22T02:41:50.241Z,90.40
2019-05-22T02:44:20.886Z,90.50
2019-05-22T02:46:50.924Z,90.40
2019-05-22T02:49:22.066Z,90.30
2019-05-22T02:51:54.383Z,90.00
2019-05-22T02:54:25.793Z,90.00
2019-05-22T02:56:56.901Z,89.60
2019-05-22T02:59:26.570Z,89.60
2019-05-22T03:01:57.667Z,89.60
2019-05-22T03:04:31.879Z,89.70
2019-05-22T03:07:02.012Z,89.50
2019-05-22T03:09:31.734Z,89.30
2019-05-22T03:12:03.529Z,88.60
2019-05-22T03:14:34.942Z,89.30
2019-05-22T03:17:08.214Z,88.70
2019-05-22T03:19:42.240Z,89.10
2019-05-22T03:22:31.165Z,88.90
2019-05-22T03:25:05.044Z,88.50
2019-05-22T03:27:50.066Z,88.70
2019-05-22T03:30:35.864Z,88.60
2019-05-22T03:33:08.206Z,88.60
2019-05-22T03:35:52.310Z,88.80
2019-05-22T03:38:23.002Z,88.30
2019-05-22T03:40:53.412Z,88.30
2019-05-22T03:43:25.192Z,87.60
2019-05-22T03:45:57.627Z,87.60
2019-05-22T03:48:30.183Z,87.50
2019-05-22T03:51:08.543Z,87.60
2019-05-22T03:53:38.140Z,86.90
2019-05-22T03:56:07.447Z,86.20
2019-05-22T03:58:37.014Z,86.10
2019-05-22T04:01:08.031Z,85.70
2019-05-22T04:03:38.563Z,85.60
2019-05-22T04:06:09.809Z,86.80
2019-05-22T04:08:39.152Z,85.60
2019-05-22T04:11:10.064Z,85.70
2019-05-22T04:13:39.999Z,84.50
2019-05-22T04:16:11.923Z,85.00
2019-05-22T04:18:41.853Z,84.40
2019-05-22T04:21:11.157Z,84.60
2019-05-22T04:23:41.093Z,84.50
2019-05-22T04:26:12.217Z,84.60
2019-05-22T04:28:50.987Z,84.40
2019-05-22T04:31:42.194Z,84.60
2019-05-22T04:34:12.692Z,84.40
2019-05-22T04:36:42.341Z,83.90
2019-05-22T04:39:14.877Z,84.90
2019-05-22T04:41:44.519Z,84.00
2019-05-22T04:44:13.867Z,83.80
2019-05-22T04:46:43.747Z,84.00
2019-05-22T04:49:13.173Z,83.60
2019-05-22T04:51:42.743Z,83.90
2019-05-22T04:54:12.047Z,84.40
2019-05-22T04:56:41.864Z,84.00
2019-05-22T04:59:13.168Z,84.10
2019-05-22T05:01:43.015Z,84.00
2019-05-22T05:04:12.476Z,83.70
2019-05-22T05:06:41.775Z,83.80
2019-05-22T05:09:12.729Z,83.50
2019-05-22T05:11:42.591Z,83.40
2019-05-22T05:14:11.892Z,83.60
2019-05-22T05:16:41.977Z,83.40
2019-05-22T05:19:11.280Z,83.00
2019-05-22T05:21:40.951Z,83.20
2019-05-22T05:24:10.434Z,83.50
2019-05-22T05:26:40.236Z,83.20
2019-05-22T05:29:21.631Z,81.80
2019-05-22T05:31:52.159Z,81.30
2019-05-22T05:34:30.398Z,81.90
2019-05-22T05:37:02.007Z,82.10
2019-05-22T05:39:37.872Z,82.50
2019-05-22T05:42:07.376Z,82.20
2019-05-22T05:44:37.687Z,81.90
2019-05-22T05:47:07.947Z,82.20
2019-05-22T05:49:37.440Z,81.80
2019-05-22T05:52:08.254Z,82.20
2019-05-22T05:54:37.876Z,82.30
2019-05-22T05:57:36.656Z,81.90
2019-05-22T06:00:11.276Z,82.30
2019-05-22T06:02:55.607Z,82.00
2019-05-22T06:05:12.135Z,83.10
2019-05-22T06:07:42.192Z,82.20
2019-05-22T06:10:30.055Z,82.50
2019-05-22T06:13:00.481Z,82.00
2019-05-22T06:15:46.865Z,82.60
2019-05-22T06:18:21.052Z,82.20
2019-05-22T06:21:03.227Z,82.40
2019-05-22T06:23:31.911Z,82.10
2019-05-22T06:26:02.176Z,82.30
2019-05-22T06:28:38.083Z,81.90
2019-05-22T06:31:15.456Z,81.50
2019-05-22T06:33:46.203Z,81.50
2019-05-22T06:36:17.511Z,81.40
2019-05-22T06:38:49.931Z,81.30
2019-05-22T06:41:22.693Z,80.80
2019-05-22T06:44:20.714Z,81.20
2019-05-22T06:46:50.271Z,81.20
2019-05-22T06:49:53.712Z,81.10
2019-05-22T06:52:23.416Z,81.20
2019-05-22T06:54:53.918Z,81.10
2019-05-22T06:57:24.943Z,81.20
2019-05-22T07:00:12.365Z,81.40
2019-05-22T07:02:26.992Z,81.30
2019-05-22T07:04:56.299Z,81.50
2019-05-22T07:07:27.204Z,81.20
2019-05-22T07:09:56.592Z,81.10
2019-05-22T07:12:29.043Z,80.70
2019-05-22T07:15:12.133Z,80.60
2019-05-22T07:17:42.322Z,80.20
2019-05-22T07:20:13.123Z,80.40
2019-05-22T07:22:43.392Z,80.30
2019-05-22T07:25:14.719Z,80.30
2019-05-22T07:27:44.479Z,79.70
2019-05-22T07:30:15.386Z,79.90
2019-05-22T07:32:45.112Z,80.00
2019-05-22T07:35:14.921Z,79.70
2019-05-22T07:37:46.778Z,79.60
2019-05-22T07:40:18.545Z,79.80
2019-05-22T07:42:49.646Z,80.00
2019-05-22T07:45:21.452Z,79.40
2019-05-22T07:47:52.767Z,79.20
2019-05-22T07:50:24.713Z,79.20
2019-05-22T07:52:54.886Z,77.90
2019-05-22T07:55:26.767Z,78.30
2019-05-22T07:58:11.737Z,78.70
2019-05-22T08:00:45.310Z,77.90
2019-05-22T08:03:15.134Z,77.00
2019-05-22T08:05:48.493Z,77.60
2019-05-22T08:08:19.304Z,77.00
2019-05-22T08:10:50.699Z,76.60
2019-05-22T08:13:21.451Z,75.00
2019-05-22T08:15:51.160Z,76.10
2019-05-22T08:18:21.364Z,76.10
2019-05-22T08:20:51.243Z,75.10
2019-05-22T08:23:22.540Z,75.20
2019-05-22T08:25:52.127Z,75.90
2019-05-22T08:28:23.521Z,76.10
2019-05-22T08:30:53.732Z,75.20
2019-05-22T08:33:24.336Z,74.70
2019-05-22T08:35:55.002Z,73.80
2019-05-22T08:38:29.499Z,75.00
2019-05-22T08:41:01.114Z,72.80
2019-05-22T08:43:49.567Z,73.90
2019-05-22T08:46:03.222Z,70.80
2019-05-22T08:48:36.222Z,71.10
2019-05-22T08:51:07.527Z,70.00
2019-05-22T08:53:46.570Z,69.00
2019-05-22T08:56:08.984Z,69.70
2019-05-22T08:58:39.595Z,68.00
2019-05-22T09:01:10.313Z,67.50
2019-05-22T09:03:40.138Z,64.60
2019-05-22T09:06:11.305Z,66.70
2019-05-22T09:08:40.938Z,66.90
2019-05-22T09:11:10.393Z,65.20
2019-05-22T09:13:40.047Z,66.30
2019-05-22T09:16:09.855Z,65.20
2019-05-22T09:18:39.605Z,63.30
2019-05-22T09:21:09.636Z,62.60
2019-05-22T09:23:40.663Z,61.80
2019-05-22T09:26:10.959Z,61.20
2019-05-22T09:28:40.370Z,61.60
2019-05-22T09:31:09.941Z,60.40
2019-05-22T09:33:39.628Z,59.40
2019-05-22T09:36:09.509Z,60.00
2019-05-22T09:38:39.206Z,59.60
2019-05-22T09:41:08.865Z,60.60
2019-05-22T09:43:38.193Z,61.50
2019-05-22T09:46:08.244Z,58.20
2019-05-22T09:48:38.429Z,59.40
2019-05-22T09:51:07.721Z,59.10
2019-05-22T09:53:38.300Z,58.00
2019-05-22T09:56:07.613Z,59.30
2019-05-22T09:58:37.477Z,58.90
2019-05-22T10:01:11.304Z,57.00
2019-05-22T10:03:38.819Z,56.00
2019-05-22T10:06:08.684Z,56.70
2019-05-22T10:08:38.197Z,54.60
2019-05-22T10:11:07.536Z,54.90
2019-05-22T10:13:37.089Z,54.00
2019-05-22T10:16:07.415Z,55.00
2019-05-22T10:18:36.776Z,53.80
2019-05-22T10:21:06.723Z,53.70
2019-05-22T10:23:36.632Z,53.20
2019-05-22T10:26:06.371Z,54.10
2019-05-22T10:28:37.094Z,54.90
2019-05-22T10:31:08.863Z,53.90
2019-05-22T10:33:40.013Z,53.30
2019-05-22T10:36:10.663Z,52.80
2019-05-22T10:38:40.024Z,53.20
2019-05-22T10:41:10.008Z,53.40
2019-05-22T10:43:39.304Z,52.60
2019-05-22T10:46:08.919Z,51.30
2019-05-22T10:48:40.578Z,51.50
2019-05-22T10:51:09.353Z,51.70
2019-05-22T10:53:39.262Z,51.80
2019-05-22T10:56:09.717Z,51.50
2019-05-22T10:58:39.515Z,51.40
2019-05-22T11:01:09.983Z,50.20
2019-05-22T11:03:39.731Z,51.20
2019-05-22T11:06:09.083Z,49.40
2019-05-22T11:08:39.893Z,50.00
2019-05-22T11:11:09.330Z,49.70
2019-05-22T11:13:39.068Z,49.30
2019-05-22T11:16:08.961Z,49.70
2019-05-22T11:18:38.622Z,48.40
2019-05-22T11:21:08.639Z,50.30
2019-05-22T11:23:51.592Z,49.30
2019-05-22T11:26:08.997Z,48.90
2019-05-22T11:28:38.616Z,48.30
2019-05-22T11:31:08.173Z,48.10
2019-05-22T11:33:37.471Z,48.10
2019-05-22T11:36:07.791Z,47.50
2019-05-22T11:38:37.093Z,47.70
2019-05-22T11:41:07.725Z,47.40
2019-05-22T11:43:37.137Z,46.10
2019-05-22T11:46:07.575Z,47.40
2019-05-22T11:48:36.899Z,46.20
2019-05-22T11:51:06.332Z,46.30
2019-05-22T11:53:36.570Z,47.10
2019-05-22T11:56:05.935Z,47.20
2019-05-22T11:58:35.351Z,44.90
2019-05-22T12:01:05.112Z,45.90
2019-05-22T12:03:35.255Z,46.40
2019-05-22T12:06:05.344Z,45.80
2019-05-22T12:08:35.205Z,45.80
2019-05-22T12:11:05.789Z,45.80
2019-05-22T12:13:35.552Z,44.60
2019-05-22T12:16:05.633Z,45.80
2019-05-22T12:18:35.292Z,44.40
2019-05-22T12:21:05.610Z,45.30
2019-05-22T12:23:35.264Z,44.30
2019-05-22T12:26:04.931Z,45.30
2019-05-22T12:28:34.217Z,44.30
2019-05-22T12:31:04.954Z,43.70
2019-05-22T12:33:34.575Z,43.40
2019-05-22T12:36:06.222Z,43.40
2019-05-22T12:38:35.983Z,44.20
2019-05-22T12:41:05.896Z,44.00
2019-05-22T12:43:35.327Z,44.10
2019-05-22T12:46:05.147Z,44.30
2019-05-22T12:48:36.792Z,43.20
2019-05-22T12:51:06.514Z,44.10
2019-05-22T12:53:35.811Z,43.80
2019-05-22T12:56:05.539Z,44.10
2019-05-22T12:58:34.919Z,44.80
2019-05-22T13:01:04.791Z,45.60
2019-05-22T13:03:35.361Z,43.00
2019-05-22T13:06:06.425Z,42.40
2019-05-22T13:08:36.706Z,44.20
2019-05-22T13:11:06.506Z,40.60
2019-05-22T13:13:37.047Z,42.10
2019-05-22T13:16:07.649Z,41.80
2019-05-22T13:18:39.263Z,42.60
2019-05-22T13:21:11.685Z,41.80
2019-05-22T13:23:43.623Z,42.20
2019-05-22T13:26:13.289Z,43.30
2019-05-22T13:28:45.267Z,43.10
2019-05-22T13:31:15.513Z,44.00
2019-05-22T13:33:45.151Z,44.20
2019-05-22T13:36:16.069Z,44.30
2019-05-22T13:38:46.018Z,44.20
2019-05-22T13:41:15.675Z,45.20
2019-05-22T13:43:46.503Z,45.00
2019-05-22T13:46:15.815Z,45.60
2019-05-22T13:48:45.176Z,45.80
2019-05-22T13:51:15.065Z,43.30
2019-05-22T13:53:44.842Z,44.20
2019-05-22T13:56:15.148Z,44.10
2019-05-22T13:58:44.559Z,43.60
2019-05-22T14:01:13.842Z,44.30
2019-05-22T14:03:43.613Z,43.60
2019-05-22T14:06:13.373Z,44.20
2019-05-22T14:08:42.684Z,43.60
2019-05-22T14:11:12.343Z,43.90
2019-05-22T14:13:42.911Z,44.80
2019-05-22T14:16:12.793Z,45.40
2019-05-22T14:18:42.311Z,44.70
2019-05-22T14:21:11.695Z,44.60
2019-05-22T14:23:41.339Z,43.10
2019-05-22T14:26:10.917Z,42.70
2019-05-22T14:28:41.581Z,42.80
2019-05-22T14:31:11.007Z,43.60
2019-05-22T14:33:41.018Z,43.60
2019-05-22T14:36:11.789Z,44.30
2019-05-22T14:38:41.580Z,45.00
2019-05-22T14:41:11.415Z,44.90
2019-05-22T14:43:40.721Z,44.40
2019-05-22T14:46:10.037Z,44.70
2019-05-22T14:48:40.403Z,45.10
2019-05-22T14:51:10.363Z,44.10
2019-05-22T14:53:41.778Z,45.40
2019-05-22T14:56:11.508Z,44.80
2019-05-22T14:58:43.639Z,45.20
2019-05-22T15:01:13.589Z,45.40
2019-05-22T15:03:43.617Z,46.90
2019-05-22T15:06:13.202Z,44.70
2019-05-22T15:08:43.459Z,44.70
2019-05-22T15:11:12.835Z,44.30
2019-05-22T15:13:42.281Z,45.30
2019-05-22T15:16:12.532Z,44.40
2019-05-22T15:18:41.974Z,44.80
2019-05-22T15:21:12.635Z,45.70
2019-05-22T15:23:42.176Z,46.40
2019-05-22T15:26:11.549Z,44.90
2019-05-22T15:28:40.908Z,45.40
2019-05-22T15:31:10.219Z,45.80
2019-05-22T15:33:40.428Z,45.70
2019-05-22T15:36:13.460Z,45.30
2019-05-22T15:38:44.648Z,46.10
2019-05-22T15:41:14.495Z,46.60
2019-05-22T15:43:45.008Z,45.90
2019-05-22T15:46:15.816Z,46.40
2019-05-22T15:48:47.343Z,46.30
2019-05-22T15:51:21.144Z,47.20
2019-05-22T15:53:52.047Z,48.40
2019-05-22T15:56:21.892Z,46.90
2019-05-22T15:58:54.045Z,47.10
2019-05-22T16:01:25.287Z,46.30
2019-05-22T16:03:56.317Z,47.40
2019-05-22T16:06:27.839Z,48.10
2019-05-22T16:08:57.989Z,47.60
2019-05-22T16:11:27.531Z,48.30
2019-05-22T16:13:59.521Z,48.10
2019-05-22T16:16:30.063Z,48.60
2019-05-22T16:19:02.828Z,49.30
2019-05-22T16:21:33.463Z,48.80
2019-05-22T16:24:04.655Z,48.50
2019-05-22T16:26:34.501Z,48.60
2019-05-22T16:29:04.352Z,49.80
2019-05-22T16:31:36.219Z,49.30
2019-05-22T16:34:06.291Z,48.60
2019-05-22T16:36:35.656Z,48.80
2019-05-22T16:39:08.751Z,49.10
2019-05-22T16:41:38.829Z,48.50
2019-05-22T16:44:08.336Z,50.30
2019-05-22T16:46:40.376Z,50.00
2019-05-22T16:49:10.164Z,50.20
2019-05-22T16:51:40.731Z,50.20
2019-05-22T16:54:10.277Z,52.00
2019-05-22T16:56:40.615Z,52.00
2019-05-22T16:59:11.844Z,51.40
2019-05-22T17:01:57.899Z,51.80
2019-05-22T17:04:14.670Z,52.00
2019-05-22T17:06:45.160Z,51.90
2019-05-22T17:09:16.375Z,52.40
2019-05-22T17:11:46.636Z,53.10
2019-05-22T17:14:16.587Z,52.60
2019-05-22T17:16:47.395Z,53.30
2019-05-22T17:19:27.280Z,52.90
2019-05-22T17:21:49.705Z,53.20
2019-05-22T17:24:20.033Z,52.70
2019-05-22T17:26:49.784Z,53.10
2019-05-22T17:29:19.344Z,54.20
2019-05-22T17:31:48.845Z,53.70
2019-05-22T17:34:37.626Z,54.10
2019-05-22T17:37:10.691Z,54.10
2019-05-22T17:39:42.203Z,53.10
2019-05-22T17:42:17.998Z,52.30
2019-05-22T17:44:49.580Z,51.80
2019-05-22T17:47:21.696Z,51.60
2019-05-22T17:49:52.012Z,51.60
2019-05-22T17:52:23.263Z,49.30
2019-05-22T17:54:52.857Z,50.00
2019-05-22T17:57:23.134Z,49.30
2019-05-22T17:59:53.532Z,50.00
2019-05-22T18:02:24.652Z,49.60
2019-05-22T18:04:54.176Z,48.60
2019-05-22T18:07:24.681Z,48.50
2019-05-22T18:09:54.717Z,47.70
2019-05-22T18:12:25.561Z,48.00
2019-05-22T18:14:56.019Z,46.90
2019-05-22T18:17:25.768Z,47.10
2019-05-22T18:19:55.815Z,47.30
2019-05-22T18:22:25.427Z,46.70
2019-05-22T18:24:54.877Z,46.50
2019-05-22T18:27:25.327Z,46.30
2019-05-22T18:29:55.000Z,47.00
2019-05-22T18:32:24.384Z,46.60
2019-05-22T18:34:53.721Z,47.10
2019-05-22T18:37:23.019Z,47.20
2019-05-22T18:39:52.575Z,47.20
2019-05-22T18:42:21.948Z,47.90
2019-05-22T18:44:51.639Z,48.20
2019-05-22T18:47:21.125Z,47.80
2019-05-22T18:49:50.479Z,48.40
2019-05-22T18:52:21.224Z,48.90
2019-05-22T18:54:50.516Z,48.50
2019-05-22T18:57:19.983Z,49.00
2019-05-22T18:59:49.332Z,49.60
2019-05-22T19:02:18.763Z,49.10
2019-05-22T19:04:48.116Z,49.30
2019-05-22T19:07:17.693Z,49.50
2019-05-22T19:09:47.070Z,49.50
2019-05-22T19:12:16.507Z,49.90
2019-05-22T19:14:45.979Z,50.30
2019-05-22T19:17:15.491Z,50.70
2019-05-22T19:19:45.413Z,50.80
2019-05-22T19:22:15.087Z,51.00
2019-05-22T19:24:44.454Z,50.70
2019-05-22T19:27:13.760Z,51.30
2019-05-22T19:29:43.330Z,51.60
2019-05-22T19:32:12.640Z,52.00
2019-05-22T19:34:42.007Z,52.50
2019-05-22T19:37:11.574Z,52.60
2019-05-22T19:39:41.321Z,52.10
2019-05-22T19:42:10.892Z,52.70
2019-05-22T19:44:40.623Z,52.60
2019-05-22T19:47:10.152Z,52.70
2019-05-22T19:49:43.587Z,53.00
2019-05-22T19:52:12.734Z,53.10
2019-05-22T19:54:42.279Z,53.30
2019-05-22T19:57:11.743Z,53.40
2019-05-22T19:59:41.607Z,53.70
2019-05-22T20:02:11.956Z,53.70
2019-05-22T20:04:41.847Z,54.00
2019-05-22T20:07:12.723Z,54.90
2019-05-22T20:09:42.560Z,54.50
2019-05-22T20:12:13.039Z,55.00
2019-05-22T20:14:42.607Z,55.10
2019-05-22T20:17:13.299Z,55.60
2019-05-22T20:19:43.028Z,55.00
2019-05-22T20:22:12.776Z,55.20
2019-05-22T20:24:42.335Z,55.50
2019-05-22T20:27:11.899Z,55.80
2019-05-22T20:29:41.371Z,56.20
2019-05-22T20:32:13.865Z,57.00
2019-05-22T20:34:43.703Z,57.20
2019-05-22T20:37:13.149Z,56.60
2019-05-22T20:39:44.279Z,57.00
2019-05-22T20:42:13.916Z,57.40
2019-05-22T20:44:43.699Z,58.00
2019-05-22T20:47:13.843Z,58.40
2019-05-22T20:49:44.958Z,58.40
2019-05-22T20:52:15.952Z,58.40
2019-05-22T20:54:46.995Z,58.80
2019-05-22T20:57:19.924Z,58.70
2019-05-22T20:59:48.199Z,59.10
2019-05-22T21:02:21.883Z,60.00
2019-05-22T21:04:53.696Z,59.80
2019-05-22T21:07:36.115Z,60.60
2019-05-22T21:10:08.025Z,60.60
2019-05-22T21:12:37.668Z,60.20
2019-05-22T21:15:08.268Z,61.00
2019-05-22T21:17:39.387Z,61.50
2019-05-22T21:20:12.819Z,61.10
2019-05-22T21:22:42.405Z,61.40
2019-05-22T21:25:13.399Z,60.90
2019-05-22T21:27:42.709Z,61.50
2019-05-22T21:30:14.782Z,62.00
2019-05-22T21:32:45.251Z,62.20
2019-05-22T21:35:16.905Z,62.40
2019-05-22T21:37:46.475Z,63.50
2019-05-22T21:40:17.824Z,64.00
2019-05-22T21:42:49.067Z,64.00
2019-05-22T21:45:18.704Z,63.70
2019-05-22T21:47:48.174Z,64.00
2019-05-22T21:50:19.521Z,64.10
2019-05-22T21:52:50.326Z,64.60
2019-05-22T21:55:23.286Z,64.50
2019-05-22T21:57:53.367Z,64.00
2019-05-22T22:00:35.796Z,63.80
2019-05-22T22:03:06.668Z,63.90
2019-05-22T22:05:37.411Z,64.70
2019-05-22T22:08:07.135Z,65.90
2019-05-22T22:10:36.499Z,66.10
2019-05-22T22:13:07.904Z,66.10
2019-05-22T22:15:41.028Z,65.70
2019-05-22T22:18:12.152Z,66.10
2019-05-22T22:20:42.811Z,65.80
2019-05-22T22:23:15.101Z,66.30
2019-05-22T22:25:46.123Z,66.40
2019-05-22T22:28:17.630Z,66.80
2019-05-22T22:30:48.767Z,67.10
2019-05-22T22:33:21.219Z,66.80
2019-05-22T22:35:52.222Z,67.00
2019-05-22T22:38:24.017Z,67.10
2019-05-22T22:40:55.255Z,66.90
2019-05-22T22:43:27.642Z,67.10
2019-05-22T22:46:01.013Z,67.40
2019-05-22T22:48:33.105Z,67.50
2019-05-22T22:51:06.038Z,67.30
2019-05-22T22:53:36.151Z,68.40
2019-05-22T22:56:05.923Z,68.00
2019-05-22T22:58:35.487Z,68.70
2019-05-22T23:01:09.152Z,68.60
2019-05-22T23:03:39.955Z,68.60
2019-05-22T23:06:12.529Z,69.50
2019-05-22T23:08:42.800Z,69.00
2019-05-22T23:11:13.751Z,69.90
2019-05-22T23:13:44.869Z,69.50
2019-05-22T23:16:14.907Z,69.70
2019-05-22T23:18:47.305Z,69.80
2019-05-22T23:21:20.767Z,70.30
2019-05-22T23:23:48.968Z,70.00
2019-05-22T23:26:19.680Z,70.70
2019-05-22T23:28:50.928Z,71.10
2019-05-22T23:31:21.259Z,70.80
2019-05-22T23:33:51.966Z,71.50
2019-05-22T23:36:22.100Z,70.80
2019-05-22T23:38:52.335Z,70.80
2019-05-22T23:41:23.432Z,70.30
2019-05-22T23:43:53.448Z,70.80
2019-05-22T23:46:25.251Z,70.60
2019-05-22T23:48:55.327Z,70.80
2019-05-22T23:51:25.594Z,71.20
2019-05-22T23:53:55.909Z,71.40
2019-05-22T23:56:26.311Z,71.20
2019-05-22T23:58:56.631Z,71.40
